« Back
NWS Peachtree City, Ga » Text Product » CSG Terminal Aerodrome Forecast


Printer-friendly Version
Current Version              Previous Versions:   1  2  3  4  5  6  7  8  9  

Terminal Aerodrome Forecast

419
FTUS42 KFFC 011700 RRA
TAFCSG
TAF
KCSG 011751Z 0118/0218 24007KT P6SM SCT050 SCT150
     FM020100 20003KT P6SM FEW060 SCT150
     FM021400 29005KT P6SM SCT035 SCT150=



USA.gov is the U.S. government's official web portal to all federal, state and local government web resources and services.